P2HTA AYGA-AIBA

Flight info

Callsign P2HTA
Flight time N/A
Altitude 13000
Route DCT
Aircraft C208/L-VGDW/C

Departure

Time 2026-05-07 19:33
Airport Goroka Airport (AYGA)

Arrival

Time N/A
Airport AIBA
Time Latitude Longitude Altitude Speed Heading
2026-05-07 19:12 -6.07920 145.39299 5262 ft 0 kts 356°
2026-05-07 19:21 -6.07915 145.39296 5170 ft 6 kts 308°
2026-05-07 19:22 -6.07922 145.39243 5171 ft 4 kts 263°
2026-05-07 19:22 -6.07922 145.39242 5171 ft 0 kts 263°
2026-05-07 19:24 -6.07924 145.39221 5168 ft 7 kts 288°
2026-05-07 19:24 -6.07837 145.39202 5180 ft 24 kts 356°
2026-05-07 19:24 -6.07686 145.39189 5197 ft 18 kts 355°
2026-05-07 19:24 -6.07607 145.39208 5207 ft 10 kts 86°
2026-05-07 19:25 -6.07573 145.39257 5212 ft 7 kts 44°
2026-05-07 19:25 -6.07544 145.39268 5216 ft 2 kts 354°
2026-05-07 19:25 -6.07538 145.39267 5216 ft 4 kts 349°
2026-05-07 19:25 -6.07483 145.39254 5221 ft 1 kts 345°
2026-05-07 19:31 -6.07472 145.39246 5222 ft 13 kts 316°
2026-05-07 19:31 -6.07476 145.39170 5221 ft 7 kts 165°
2026-05-07 19:31 -6.07488 145.39174 5219 ft 0 kts 175°
2026-05-07 19:32 -6.07685 145.39192 5196 ft 79 kts 173°
2026-05-07 19:32 -6.08363 145.39259 5614 ft 106 kts 174°
2026-05-07 19:32 -6.09220 145.39305 5738 ft 147 kts 183°
2026-05-07 19:33 -6.10230 145.39272 6210 ft 148 kts 177°
2026-05-07 19:33 -6.11252 145.39640 6365 ft 163 kts 150°
2026-05-07 19:33 -6.12038 145.40366 6625 ft 147 kts 115°
2026-05-07 19:33 -6.11990 145.41329 6753 ft 137 kts 60°
2026-05-07 19:34 -6.11260 145.41911 7028 ft 135 kts 15°
2026-05-07 19:34 -6.10334 145.41752 7470 ft 139 kts 336°
2026-05-07 19:34 -6.09495 145.41269 7968 ft 140 kts 327°
2026-05-07 19:34 -6.08822 145.40569 8372 ft 148 kts 302°
2026-05-07 19:35 -6.08361 145.39596 8706 ft 153 kts 300°
2026-05-07 19:35 -6.07964 145.38602 9115 ft 150 kts 278°
2026-05-07 19:35 -6.07928 145.37614 9610 ft 139 kts 271°
2026-05-07 19:35 -6.07924 145.36650 9991 ft 138 kts 258°
2026-05-07 19:36 -6.08225 145.35747 10365 ft 135 kts 243°
2026-05-07 19:36 -6.08839 145.35042 10668 ft 138 kts 214°
2026-05-07 19:36 -6.09491 145.34363 11057 ft 136 kts 239°
2026-05-07 19:36 -6.09854 145.33491 11461 ft 134 kts 250°
2026-05-07 19:37 -6.10187 145.32621 11844 ft 136 kts 247°
2026-05-07 19:37 -6.10557 145.31673 11934 ft 156 kts 246°
2026-05-07 19:37 -6.10978 145.30605 11954 ft 170 kts 249°
2026-05-07 19:37 -6.11392 145.29449 11933 ft 180 kts 249°
2026-05-07 19:38 -6.11791 145.28247 11966 ft 183 kts 253°
2026-05-07 19:38 -6.12055 145.27433 11935 ft 187 kts 248°
2026-05-07 19:38 -6.12565 145.26220 11907 ft 189 kts 245°
2026-05-07 19:38 -6.13128 145.25035 11922 ft 187 kts 244°
2026-05-07 19:39 -6.13676 145.23863 11971 ft 184 kts 245°
2026-05-07 19:39 -6.14133 145.22642 11927 ft 188 kts 252°
2026-05-07 19:39 -6.14553 145.21402 11943 ft 186 kts 250°
2026-05-07 19:39 -6.15009 145.20174 11901 ft 187 kts 249°
2026-05-07 19:40 -6.15482 145.18962 11924 ft 187 kts 247°
2026-05-07 19:40 -6.15983 145.17754 11917 ft 189 kts 249°
2026-05-07 19:40 -6.16455 145.16528 11927 ft 186 kts 248°
2026-05-07 19:40 -6.16959 145.15316 11933 ft 189 kts 245°
2026-05-07 19:41 -6.17475 145.14106 11939 ft 188 kts 249°
2026-05-07 19:41 -6.17904 145.12892 11968 ft 186 kts 251°
2026-05-07 19:41 -6.18401 145.11681 11934 ft 187 kts 245°
2026-05-07 19:41 -6.18904 145.10474 11941 ft 186 kts 249°
2026-05-07 19:42 -6.19375 145.09258 11942 ft 186 kts 246°
2026-05-07 19:42 -6.19881 145.08066 11926 ft 187 kts 249°
2026-05-07 19:42 -6.20429 145.06872 11585 ft 180 kts 240°
2026-05-07 19:42 -6.21143 145.05842 11002 ft 179 kts 224°
2026-05-07 19:43 -6.22198 145.05184 9809 ft 185 kts 203°
2026-05-07 19:43 -6.23458 145.04841 8641 ft 184 kts 192°
2026-05-07 19:43 -6.24672 145.04451 7395 ft 186 kts 210°
2026-05-07 19:43 -6.25776 145.04206 7102 ft 147 kts 161°
2026-05-07 19:44 -6.26504 145.05051 6927 ft 180 kts 105°
2026-05-07 19:44 -6.26284 145.06258 7018 ft 183 kts 64°
2026-05-07 19:44 -6.25615 145.07323 7129 ft 182 kts 56°
2026-05-07 19:44 -6.24874 145.08359 7177 ft 179 kts 56°
2026-05-07 19:45 -6.24018 145.09173 6973 ft 163 kts 21°
2026-05-07 19:45 -6.22911 145.09078 7063 ft 172 kts 326°
2026-05-07 19:45 -6.22176 145.08059 6969 ft 189 kts 298°
2026-05-07 19:45 -6.21665 145.07051 6908 ft 140 kts 295°
2026-05-07 19:46 -6.21290 145.06137 6539 ft 150 kts 288°
2026-05-07 19:46 -6.21080 145.05223 6220 ft 117 kts 260°
2026-05-07 19:46 -6.21729 145.04647 5436 ft 141 kts 208°
2026-05-07 19:46 -6.22322 145.03920 5861 ft 137 kts 246°
2026-05-07 19:47 -6.22732 145.03148 6504 ft 123 kts 236°
2026-05-07 19:47 -6.23254 145.02467 7105 ft 119 kts 228°
2026-05-07 19:47 -6.23810 145.01826 6688 ft 130 kts 229°
2026-05-07 19:47 -6.24485 145.01273 7020 ft 131 kts 207°
2026-05-07 19:48 -6.25316 145.00798 7158 ft 141 kts 228°
2026-05-07 19:48 -6.25659 144.99964 6696 ft 116 kts 254°
2026-05-07 19:48 -6.26047 144.99309 6549 ft 112 kts 229°
2026-05-07 19:48 -6.26481 144.98759 6571 ft 77 kts 230°
2026-05-07 19:49 -6.26665 144.98562 6627 ft 10 kts 247°
2026-05-07 19:49 -6.26655 144.98576 6619 ft 1 kts 205°
2026-05-07 19:49 -6.26668 144.98596 6619 ft 0 kts 171°
2026-05-07 19:51 -6.26649 144.98594 6617 ft 2 kts 184°
2026-05-07 19:51 -6.26639 144.98595 6617 ft 1 kts 185°
2026-05-07 19:51 -6.26618 144.98615 6611 ft 16 kts 30°
2026-05-07 19:51 -6.26530 144.98719 6579 ft 25 kts 51°
2026-05-07 19:52 -6.26492 144.98766 6567 ft 0 kts 51°
2026-05-07 19:52 -6.26485 144.98758 6569 ft 3 kts 225°
2026-05-07 19:52 -6.26542 144.98766 6578 ft 1 kts 180°
2026-05-07 19:53 -6.26554 144.98711 6584 ft 9 kts 237°
2026-05-07 19:53 -6.26564 144.98705 6586 ft 0 kts 176°
2026-05-07 19:53 -6.26569 144.98709 6587 ft 5 kts 117°
2026-05-07 19:53 -6.26564 144.98726 6587 ft 1 kts 72°
2026-05-07 19:54 -6.26553 144.98728 6584 ft 0 kts 348°
2026-05-07 20:07 -6.26548 144.98724 6583 ft 6 kts 300°
2026-05-07 20:07 -6.26568 144.98678 6591 ft 12 kts 232°
2026-05-07 20:07 -6.26624 144.98624 6610 ft 5 kts 208°
2026-05-07 20:07 -6.26632 144.98581 6618 ft 8 kts 36°
2026-05-07 20:08 -6.26622 144.98593 6617 ft 0 kts 53°
2026-05-07 20:09 -6.26621 144.98594 6617 ft 3 kts 53°
2026-05-07 20:10 -6.26247 144.98962 6658 ft 100 kts 32°
2026-05-07 20:10 -6.25516 144.98992 7036 ft 114 kts 347°
2026-05-07 20:10 -6.24781 144.98821 7538 ft 106 kts 339°
2026-05-07 20:10 -6.24010 144.98688 7864 ft 119 kts
2026-05-07 20:11 -6.23238 144.98576 8350 ft 110 kts 333°
2026-05-07 20:11 -6.22624 144.98163 8854 ft 103 kts 335°
2026-05-07 20:11 -6.21968 144.97827 9245 ft 107 kts 317°
2026-05-07 20:11 -6.21734 144.97081 9404 ft 127 kts 265°
2026-05-07 20:12 -6.21877 144.96206 9735 ft 125 kts 257°
2026-05-07 20:12 -6.21941 144.95337 9958 ft 133 kts 292°
2026-05-07 20:12 -6.21321 144.94591 10078 ft 149 kts 319°
2026-05-07 20:12 -6.20492 144.93910 10234 ft 158 kts 322°
2026-05-07 20:13 -6.19615 144.93212 10396 ft 163 kts 322°
2026-05-07 20:13 -6.18720 144.92503 10558 ft 165 kts 322°
2026-05-07 20:13 -6.17826 144.91792 10789 ft 163 kts 322°
2026-05-07 20:13 -6.16940 144.91087 11021 ft 163 kts 322°
2026-05-07 20:14 -6.16053 144.90382 11253 ft 163 kts 322°
2026-05-07 20:14 -6.15167 144.89677 11491 ft 161 kts 322°
2026-05-07 20:14 -6.14292 144.88981 11726 ft 160 kts 322°
2026-05-07 20:14 -6.13416 144.88287 11938 ft 163 kts 322°
2026-05-07 20:15 -6.12491 144.87552 11950 ft 175 kts 323°
2026-05-07 20:15 -6.11518 144.86778 11951 ft 181 kts 323°
2026-05-07 20:15 -6.10534 144.85999 11956 ft 178 kts 322°
2026-05-07 20:15 -6.09534 144.85201 11953 ft 189 kts 323°
2026-05-07 20:16 -6.08481 144.84363 11954 ft 195 kts 323°
2026-05-07 20:16 -6.07407 144.83510 11956 ft 198 kts 322°
2026-05-07 20:16 -6.06322 144.82647 11954 ft 199 kts 323°
2026-05-07 20:16 -6.05236 144.81784 11953 ft 198 kts 322°
2026-05-07 20:17 -6.04170 144.80939 11950 ft 194 kts 323°
2026-05-07 20:17 -6.03118 144.80102 11952 ft 192 kts 322°
2026-05-07 20:17 -6.02074 144.79273 11950 ft 190 kts 322°
2026-05-07 20:17 -6.01037 144.78448 11956 ft 190 kts 323°
2026-05-07 20:18 -6.00002 144.77626 11955 ft 190 kts 322°
2026-05-07 20:18 -5.98967 144.76804 11953 ft 189 kts 323°
2026-05-07 20:18 -5.98282 144.76260 11954 ft 190 kts 323°
2026-05-07 20:18 -5.97246 144.75437 11949 ft 190 kts 322°
2026-05-07 20:19 -5.95876 144.74348 11951 ft 189 kts 322°
2026-05-07 20:19 -5.95181 144.73796 11951 ft 189 kts 322°
2026-05-07 20:19 -5.94152 144.72979 11953 ft 188 kts 322°
2026-05-07 20:19 -5.92790 144.71897 11952 ft 189 kts 322°
2026-05-07 20:20 -5.92095 144.71345 11953 ft 188 kts 322°
2026-05-07 20:20 -5.91154 144.70604 11935 ft 158 kts 323°
2026-05-07 20:20 -5.90331 144.69951 11935 ft 144 kts 322°
2026-05-07 20:20 -5.89570 144.69345 11935 ft 135 kts 323°
2026-05-07 20:21 -5.88851 144.68776 11932 ft 129 kts 323°
2026-05-07 20:21 -5.88166 144.68229 11931 ft 124 kts 321°
2026-05-07 20:21 -5.87502 144.67702 11911 ft 122 kts 322°
2026-05-07 20:21 -5.86795 144.67145 11601 ft 127 kts 322°
2026-05-07 20:22 -5.86074 144.66579 11057 ft 138 kts 322°
2026-05-07 20:22 -5.85337 144.65993 10834 ft 132 kts 322°
2026-05-07 20:22 -5.84627 144.65428 10525 ft 132 kts 321°
2026-05-07 20:22 -5.83897 144.64848 10202 ft 132 kts 322°
2026-05-07 20:23 -5.83190 144.64288 9892 ft 130 kts 322°
2026-05-07 20:23 -5.82475 144.63720 9510 ft 130 kts 321°
2026-05-07 20:23 -5.81772 144.63162 9148 ft 127 kts 322°
2026-05-07 20:23 -5.81095 144.62628 8606 ft 124 kts 322°
2026-05-07 20:24 -5.80419 144.62091 8071 ft 123 kts 322°
2026-05-07 20:24 -5.79817 144.61613 7900 ft 94 kts 323°
2026-05-07 20:24 -5.79284 144.61169 8228 ft 114 kts 322°
2026-05-07 20:24 -5.78577 144.60616 7927 ft 129 kts 323°
2026-05-07 20:25 -5.77886 144.60079 7610 ft 122 kts 324°
2026-05-07 20:25 -5.77240 144.59570 7385 ft 116 kts 323°
2026-05-07 20:25 -5.76635 144.59088 7221 ft 109 kts 322°
2026-05-07 20:25 -5.76032 144.58608 7059 ft 112 kts 323°
2026-05-07 20:26 -5.75421 144.58123 6891 ft 112 kts 323°
2026-05-07 20:26 -5.74820 144.57642 6830 ft 110 kts 323°
2026-05-07 20:26 -5.74204 144.57154 6864 ft 110 kts 324°
2026-05-07 20:26 -5.73698 144.56644 6844 ft 98 kts 295°
2026-05-07 20:27 -5.73778 144.55957 6770 ft 108 kts 251°
2026-05-07 20:27 -5.74186 144.55317 6724 ft 114 kts 236°
2026-05-07 20:27 -5.74749 144.54823 6421 ft 103 kts 194°
2026-05-07 20:27 -5.75409 144.54986 5949 ft 100 kts 155°
2026-05-07 20:28 -5.76098 144.55189 5641 ft 107 kts 167°
2026-05-07 20:28 -5.76798 144.55361 5378 ft 104 kts 167°
2026-05-07 20:28 -5.77462 144.55525 5182 ft 93 kts 163°
2026-05-07 20:28 -5.78065 144.55676 5054 ft 82 kts 166°
2026-05-07 20:29 -5.78538 144.55799 5029 ft 57 kts 168°
2026-05-07 20:29 -5.78764 144.55843 5017 ft 0 kts 173°
2026-05-07 20:31 -5.78764 144.55844 5017 ft 0 kts 169°
2026-05-07 20:31 -5.78764 144.55843 5018 ft 0 kts 169°
2026-05-07 20:32 -5.78749 144.55841 5018 ft 0 kts 170°
2026-05-07 20:33 -5.78718 144.55840 5016 ft 2 kts 92°
2026-05-07 20:33 -5.78699 144.55849 5028 ft 19 kts 345°
2026-05-07 20:33 -5.78621 144.55799 5025 ft 11 kts 312°
2026-05-07 20:33 -5.78567 144.55748 5031 ft 10 kts 354°
2026-05-07 20:34 -5.78502 144.55749 5033 ft 9 kts
2026-05-07 20:34 -5.78455 144.55737 5036 ft 5 kts 335°
2026-05-07 20:34 -5.78445 144.55702 5037 ft 6 kts 250°
2026-05-07 20:34 -5.78482 144.55681 5032 ft 5 kts 158°
2026-05-07 20:35 -5.78489 144.55699 5032 ft 0 kts 56°
2026-05-07 20:49 -5.78401 144.55717 5039 ft 56 kts
2026-05-07 20:49 -5.77812 144.55597 5272 ft 104 kts 344°
2026-05-07 20:49 -5.77128 144.55422 5457 ft 100 kts 345°
2026-05-07 20:50 -5.76498 144.55137 5612 ft 98 kts 332°
2026-05-07 20:50 -5.76018 144.54670 5726 ft 97 kts 281°
2026-05-07 20:50 -5.75722 144.54182 6045 ft 82 kts 342°
2026-05-07 20:50 -5.75171 144.53974 6265 ft 85 kts 344°
2026-05-07 20:51 -5.74689 144.54214 6482 ft 89 kts 71°
2026-05-07 20:51 -5.74707 144.54829 6711 ft 90 kts 90°
2026-05-07 20:51 -5.74766 144.55479 6827 ft 103 kts 94°
2026-05-07 20:51 -5.74845 144.56285 6988 ft 123 kts 94°
2026-05-07 20:52 -5.74919 144.57143 7261 ft 123 kts 93°
2026-05-07 20:52 -5.74989 144.57997 7514 ft 123 kts 95°
2026-05-07 20:52 -5.75047 144.58853 7811 ft 123 kts 94°
2026-05-07 20:52 -5.75085 144.59710 8127 ft 124 kts 85°
2026-05-07 20:53 -5.74745 144.60498 8439 ft 124 kts 64°
2026-05-07 20:53 -5.74371 144.61278 8752 ft 124 kts 66°
2026-05-07 20:53 -5.74011 144.62070 9061 ft 125 kts 67°
2026-05-07 20:53 -5.73652 144.62868 9366 ft 126 kts 68°
2026-05-07 20:54 -5.73294 144.63670 9679 ft 126 kts 68°
2026-05-07 20:54 -5.72937 144.64477 9968 ft 127 kts 68°
2026-05-07 20:54 -5.72576 144.65285 10244 ft 127 kts 68°
2026-05-07 20:54 -5.72218 144.66096 10502 ft 127 kts 68°
2026-05-07 20:55 -5.71855 144.66910 10752 ft 128 kts 68°
2026-05-07 20:55 -5.71487 144.67740 11069 ft 128 kts 68°
2026-05-07 20:55 -5.71126 144.68554 11446 ft 128 kts 68°
2026-05-07 20:55 -5.70762 144.69373 11807 ft 128 kts 68°
2026-05-07 20:56 -5.70374 144.70249 11896 ft 149 kts 69°
2026-05-07 20:56 -5.69935 144.71249 11901 ft 162 kts 67°
2026-05-07 20:56 -5.69465 144.72310 11905 ft 169 kts 68°
2026-05-07 20:56 -5.68980 144.73402 11906 ft 173 kts 68°
2026-05-07 20:57 -5.68488 144.74510 11903 ft 175 kts 68°
2026-05-07 20:57 -5.67991 144.75628 11907 ft 176 kts 68°
2026-05-07 20:57 -5.67493 144.76750 11906 ft 176 kts 68°
2026-05-07 20:57 -5.66994 144.77873 11909 ft 176 kts 68°
2026-05-07 20:58 -5.66494 144.78998 11905 ft 176 kts 68°
2026-05-07 20:58 -5.65995 144.80121 11909 ft 176 kts 68°
2026-05-07 20:58 -5.65495 144.81246 11908 ft 176 kts 68°
2026-05-07 20:58 -5.65164 144.81992 11908 ft 176 kts 68°
2026-05-07 20:59 -5.64502 144.83481 11909 ft 176 kts 68°
2026-05-07 20:59 -5.64165 144.84240 11908 ft 176 kts 68°
2026-05-07 20:59 -5.63505 144.85726 11913 ft 176 kts 68°
2026-05-07 20:59 -5.63006 144.86849 11911 ft 176 kts 68°
2026-05-07 21:00 -5.62666 144.87612 11913 ft 179 kts 68°
2026-05-07 21:00 -5.62155 144.88764 11912 ft 183 kts 68°
2026-05-07 21:00 -5.61635 144.89930 11912 ft 188 kts 68°
2026-05-07 21:00 -5.61095 144.91143 11910 ft 191 kts 68°
2026-05-07 21:01 -5.60551 144.92368 11883 ft 193 kts 68°
2026-05-07 21:01 -5.60003 144.93601 11884 ft 194 kts 68°
2026-05-07 21:01 -5.59455 144.94832 11885 ft 193 kts 68°
2026-05-07 21:01 -5.58907 144.96067 11871 ft 194 kts 68°
2026-05-07 21:02 -5.58359 144.97299 11871 ft 193 kts 68°
2026-05-07 21:02 -5.57809 144.98535 11868 ft 194 kts 68°
2026-05-07 21:02 -5.57262 144.99766 11872 ft 193 kts 68°
2026-05-07 21:02 -5.56715 145.00995 11876 ft 193 kts 68°
2026-05-07 21:03 -5.56165 145.02230 11872 ft 194 kts 68°
2026-05-07 21:03 -5.55613 145.03472 11871 ft 195 kts 68°
2026-05-07 21:03 -5.55062 145.04710 11869 ft 194 kts 68°
2026-05-07 21:03 -5.54512 145.05947 11865 ft 194 kts 68°
2026-05-07 21:04 -5.53961 145.07186 11866 ft 194 kts 68°
2026-05-07 21:04 -5.53408 145.08428 11862 ft 195 kts 68°
2026-05-07 21:04 -5.52857 145.09667 11862 ft 194 kts 68°
2026-05-07 21:04 -5.52305 145.10909 11864 ft 195 kts 68°
2026-05-07 21:05 -5.51752 145.12151 11864 ft 195 kts 68°
2026-05-07 21:05 -5.51199 145.13394 11864 ft 195 kts 68°
2026-05-07 21:05 -5.50659 145.14608 11861 ft 185 kts 68°
2026-05-07 21:05 -5.50385 145.15798 11863 ft 172 kts 84°
2026-05-07 21:06 -5.50319 145.16975 11851 ft 168 kts 92°
2026-05-07 21:06 -5.49877 145.18040 11801 ft 171 kts 49°
2026-05-07 21:06 -5.49026 145.18844 11806 ft 167 kts 48°
2026-05-07 21:06 -5.48371 145.19772 11806 ft 158 kts 65°
2026-05-07 21:07 -5.47922 145.20740 11804 ft 149 kts 68°
2026-05-07 21:07 -5.47510 145.21679 11800 ft 141 kts 69°
2026-05-07 21:07 -5.47134 145.22530 11801 ft 129 kts 69°
2026-05-07 21:07 -5.46774 145.23339 11803 ft 130 kts 68°
2026-05-07 21:08 -5.46389 145.24203 11812 ft 142 kts 68°
2026-05-07 21:08 -5.45966 145.25155 11815 ft 156 kts 68°
2026-05-07 21:08 -5.45525 145.26145 11811 ft 153 kts 68°
2026-05-07 21:08 -5.45109 145.27080 11800 ft 145 kts 68°
2026-05-07 21:09 -5.44705 145.28020 11911 ft 145 kts 71°
2026-05-07 21:09 -5.44276 145.28969 11847 ft 156 kts 68°
2026-05-07 21:09 -5.43824 145.29970 11810 ft 157 kts 68°
2026-05-07 21:09 -5.43336 145.30950 11763 ft 159 kts 61°
2026-05-07 21:10 -5.42735 145.31918 11566 ft 159 kts 66°
2026-05-07 21:10 -5.42317 145.32885 11460 ft 149 kts 70°
2026-05-07 21:10 -5.41975 145.33833 11568 ft 140 kts 72°
2026-05-07 21:10 -5.41629 145.34750 11644 ft 142 kts 71°
2026-05-07 21:11 -5.41224 145.35664 11704 ft 145 kts 63°
2026-05-07 21:11 -5.40768 145.36573 11783 ft 149 kts 69°
2026-05-07 21:11 -5.39843 145.38482 11849 ft 155 kts 67°
2026-05-07 21:12 -5.39406 145.39490 11797 ft 163 kts 76°
2026-05-07 21:12 -5.39054 145.40560 11782 ft 164 kts 72°
2026-05-07 21:12 -5.38621 145.41640 11781 ft 165 kts 69°
2026-05-07 21:12 -5.38162 145.42679 11684 ft 153 kts 69°
2026-05-07 21:13 -5.37721 145.43680 10890 ft 164 kts 68°
2026-05-07 21:13 -5.37225 145.44784 10668 ft 181 kts 68°
2026-05-07 21:13 -5.36693 145.45962 10667 ft 189 kts 68°
2026-05-07 21:13 -5.36158 145.47162 10652 ft 176 kts 69°
2026-05-07 21:14 -5.35695 145.48214 10162 ft 161 kts 69°
2026-05-07 21:14 -5.35238 145.49254 9480 ft 163 kts 69°
2026-05-07 21:14 -5.34778 145.50292 8783 ft 162 kts 69°
2026-05-07 21:14 -5.34321 145.51317 8124 ft 160 kts 68°
2026-05-07 21:15 -5.33860 145.52326 7482 ft 158 kts 64°
2026-05-07 21:15 -5.33355 145.53298 6847 ft 156 kts 65°
2026-05-07 21:15 -5.32868 145.54273 6202 ft 156 kts 65°
2026-05-07 21:15 -5.32378 145.55244 5520 ft 156 kts 64°
2026-05-07 21:16 -5.31892 145.56204 4874 ft 153 kts 63°
2026-05-07 21:16 -5.31411 145.57150 4236 ft 151 kts 63°
2026-05-07 21:16 -5.30983 145.57996 4097 ft 118 kts 63°
2026-05-07 21:16 -5.30626 145.58686 4031 ft 118 kts 61°
2026-05-07 21:17 -5.30195 145.59520 3815 ft 147 kts 63°
2026-05-07 21:17 -5.29717 145.60463 3600 ft 152 kts 63°
2026-05-07 21:17 -5.29239 145.61406 3401 ft 151 kts 63°
2026-05-07 21:17 -5.28769 145.62335 3195 ft 147 kts 62°
2026-05-07 21:18 -5.28307 145.63243 3004 ft 146 kts 63°
2026-05-07 21:18 -5.27850 145.64146 2806 ft 144 kts 63°
2026-05-07 21:18 -5.27398 145.65032 2615 ft 144 kts 63°
2026-05-07 21:18 -5.26948 145.65921 2426 ft 141 kts 63°
2026-05-07 21:19 -5.26508 145.66786 2247 ft 138 kts 63°
2026-05-07 21:19 -5.26070 145.67651 2059 ft 138 kts 62°
2026-05-07 21:19 -5.25634 145.68508 1893 ft 136 kts 63°
2026-05-07 21:19 -5.25217 145.69328 1893 ft 129 kts 64°
2026-05-07 21:20 -5.24815 145.70119 1890 ft 124 kts 65°
2026-05-07 21:20 -5.24425 145.70883 1885 ft 121 kts 64°
2026-05-07 21:20 -5.24050 145.71624 1883 ft 118 kts 64°
2026-05-07 21:20 -5.23677 145.72358 1881 ft 118 kts 64°
2026-05-07 21:21 -5.23587 145.73151 1870 ft 117 kts 94°
2026-05-07 21:21 -5.23275 145.73854 1737 ft 114 kts 48°
2026-05-07 21:21 -5.22775 145.74364 1517 ft 95 kts 52°
2026-05-07 21:21 -5.22432 145.74836 1296 ft 76 kts 56°
2026-05-07 21:22 -5.22115 145.75330 1117 ft 93 kts 60°
2026-05-07 21:22 -5.21797 145.75902 975 ft 84 kts 65°
2026-05-07 21:22 -5.21562 145.76434 689 ft 81 kts 68°
2026-05-07 21:22 -5.21360 145.76944 455 ft 80 kts 70°
2026-05-07 21:23 -5.21194 145.77552 269 ft 90 kts 71°
2026-05-07 21:23 -5.21052 145.78089 59 ft 71 kts 73°
2026-05-07 21:23 -5.20948 145.78511 22 ft 54 kts 83°
2026-05-07 21:23 -5.20871 145.78792 27 ft 23 kts 67°
2026-05-07 21:24 -5.20934 145.78921 25 ft 17 kts 86°
2026-05-07 21:24 -5.20931 145.78944 24 ft 0 kts 82°
2026-05-07 21:30 -5.20922 145.78947 29 ft 7 kts 328°
2026-05-07 21:30 -5.20931 145.78861 26 ft 16 kts 266°
2026-05-07 21:31 -5.20947 145.78795 26 ft 8 kts 242°
2026-05-07 21:31 -5.20977 145.78763 25 ft 2 kts 214°
2026-05-07 21:31 -5.20979 145.78762 25 ft 0 kts 210°
2026-05-07 21:41 -5.20989 145.78749 26 ft 7 kts 269°
2026-05-07 21:41 -5.20975 145.78685 24 ft 10 kts 277°
2026-05-07 21:42 -5.20951 145.78668 24 ft 1 kts 343°
2026-05-07 21:42 -5.20913 145.78643 24 ft 12 kts 286°
2026-05-07 21:42 -5.20938 145.78538 22 ft 19 kts 254°
2026-05-07 21:42 -5.20971 145.78411 24 ft 19 kts 256°
2026-05-07 21:43 -5.21010 145.78269 28 ft 21 kts 254°
2026-05-07 21:43 -5.21050 145.78166 27 ft 10 kts 256°
2026-05-07 21:43 -5.21033 145.78189 26 ft 7 kts 46°
2026-05-07 21:43 -5.21029 145.78196 26 ft 0 kts 71°
2026-05-07 21:56 -5.21007 145.78267 25 ft 53 kts 74°
2026-05-07 21:56 -5.20878 145.78819 424 ft 97 kts 77°
2026-05-07 21:57 -5.20632 145.79457 1102 ft 106 kts 52°
2026-05-07 21:57 -5.20339 145.80207 1298 ft 132 kts 95°
2026-05-07 21:57 -5.20846 145.81021 1432 ft 150 kts 142°
2026-05-07 21:57 -5.21879 145.81202 1561 ft 158 kts 189°
2026-05-07 21:58 -5.22780 145.80591 1679 ft 159 kts 226°
2026-05-07 21:58 -5.23490 145.79765 1944 ft 149 kts 228°
2026-05-07 21:58 -5.24144 145.79005 2510 ft 139 kts 228°
2026-05-07 21:58 -5.24778 145.78279 3026 ft 137 kts 228°
2026-05-07 21:59 -5.25420 145.77583 3477 ft 138 kts 227°
2026-05-07 21:59 -5.26076 145.76878 3910 ft 138 kts 228°
2026-05-07 21:59 -5.26698 145.76150 4369 ft 137 kts 243°
2026-05-07 21:59 -5.27176 145.75332 4813 ft 136 kts 233°
2026-05-07 22:00 -5.27896 145.74722 5230 ft 137 kts 211°
2026-05-07 22:00 -5.28734 145.74267 5651 ft 137 kts 208°
2026-05-07 22:00 -5.29608 145.73818 5885 ft 150 kts 208°
2026-05-07 22:00 -5.30595 145.73309 5887 ft 166 kts 207°
2026-05-07 22:01 -5.31644 145.72774 5895 ft 172 kts 208°
2026-05-07 22:01 -5.32722 145.72225 5896 ft 174 kts 207°
2026-05-07 22:01 -5.33802 145.71676 6005 ft 169 kts 208°
2026-05-07 22:01 -5.34781 145.71180 6489 ft 148 kts 207°
2026-05-07 22:02 -5.35699 145.70717 6790 ft 149 kts 207°
2026-05-07 22:02 -5.36630 145.70242 7080 ft 150 kts 206°
2026-05-07 22:02 -5.37559 145.69771 7366 ft 150 kts 207°
2026-05-07 22:02 -5.38496 145.69294 7648 ft 151 kts 206°
2026-05-07 22:03 -5.39439 145.68814 7926 ft 152 kts 207°
2026-05-07 22:03 -5.40387 145.68331 8202 ft 153 kts 206°
2026-05-07 22:03 -5.41325 145.67855 8489 ft 153 kts 206°
2026-05-07 22:03 -5.42274 145.67372 8758 ft 154 kts 206°
2026-05-07 22:04 -5.43232 145.66886 9018 ft 154 kts 206°
2026-05-07 22:04 -5.44190 145.66397 9292 ft 154 kts 205°
2026-05-07 22:04 -5.45150 145.65910 9553 ft 155 kts 205°
2026-05-07 22:04 -5.46116 145.65418 9794 ft 156 kts 205°
2026-05-07 22:05 -5.47088 145.64924 10031 ft 157 kts 206°
2026-05-07 22:05 -5.48069 145.64424 10249 ft 158 kts 205°
2026-05-07 22:05 -5.49052 145.63925 10458 ft 159 kts 206°
2026-05-07 22:05 -5.50044 145.63420 10671 ft 160 kts 205°
2026-05-07 22:06 -5.51045 145.62911 10891 ft 161 kts 205°
2026-05-07 22:06 -5.52052 145.62398 11099 ft 162 kts 205°
2026-05-07 22:06 -5.53061 145.61885 11321 ft 163 kts 205°
2026-05-07 22:06 -5.54078 145.61367 11555 ft 164 kts 204°
2026-05-07 22:07 -5.55101 145.60847 11773 ft 165 kts 204°
2026-05-07 22:07 -5.56143 145.60318 11811 ft 175 kts 204°
2026-05-07 22:07 -5.57263 145.59747 11813 ft 181 kts 205°
2026-05-07 22:07 -5.58391 145.59172 11812 ft 183 kts 205°
2026-05-07 22:08 -5.59519 145.58597 11813 ft 186 kts 205°
2026-05-07 22:08 -5.60694 145.58001 11815 ft 192 kts 206°
2026-05-07 22:08 -5.61904 145.57387 11825 ft 197 kts 205°
2026-05-07 22:08 -5.63135 145.56759 11823 ft 199 kts 206°
2026-05-07 22:09 -5.64374 145.56128 11823 ft 200 kts 205°
2026-05-07 22:09 -5.65616 145.55496 11844 ft 199 kts 205°
2026-05-07 22:09 -5.66845 145.54871 11846 ft 198 kts 206°
2026-05-07 22:09 -5.68073 145.54246 11846 ft 199 kts 206°
2026-05-07 22:10 -5.69307 145.53618 11847 ft 199 kts 206°
2026-05-07 22:10 -5.70542 145.52988 11848 ft 199 kts 205°
2026-05-07 22:10 -5.71779 145.52359 11849 ft 199 kts 205°
2026-05-07 22:10 -5.73017 145.51729 11848 ft 199 kts 205°
2026-05-07 22:11 -5.74253 145.51099 11849 ft 199 kts 205°
2026-05-07 22:11 -5.75475 145.50478 11849 ft 199 kts 206°
2026-05-07 22:11 -5.76709 145.49849 11846 ft 199 kts 205°
2026-05-07 22:11 -5.77945 145.49220 11874 ft 199 kts 206°
2026-05-07 22:12 -5.79183 145.48590 11875 ft 199 kts 206°
2026-05-07 22:12 -5.80420 145.47959 11876 ft 199 kts 205°
2026-05-07 22:12 -5.81657 145.47330 11877 ft 199 kts 206°
2026-05-07 22:12 -5.82894 145.46700 11890 ft 199 kts 206°
2026-05-07 22:13 -5.84128 145.46071 11888 ft 199 kts 206°
2026-05-07 22:13 -5.85362 145.45442 11890 ft 199 kts 206°
2026-05-07 22:13 -5.86600 145.44813 11889 ft 199 kts 206°
2026-05-07 22:13 -5.87836 145.44182 11890 ft 199 kts 206°
2026-05-07 22:14 -5.89064 145.43557 11890 ft 197 kts 206°
2026-05-07 22:14 -5.90274 145.42941 11908 ft 198 kts 206°
2026-05-07 22:14 -5.91510 145.42311 11903 ft 200 kts 205°
2026-05-07 22:14 -5.92747 145.41681 11906 ft 199 kts 206°
2026-05-07 22:15 -5.93979 145.41053 11909 ft 198 kts 206°
2026-05-07 22:15 -5.95209 145.40426 11911 ft 198 kts 206°
2026-05-07 22:15 -5.96442 145.39798 11913 ft 199 kts 206°
2026-05-07 22:15 -5.97677 145.39169 11904 ft 199 kts 206°
2026-05-07 22:16 -5.98929 145.38593 11898 ft 198 kts 196°
2026-05-07 22:16 -6.00290 145.38446 11893 ft 198 kts 175°
2026-05-07 22:16 -6.01667 145.38569 11919 ft 200 kts 174°
2026-05-07 22:16 -6.03031 145.38688 11907 ft 180 kts 175°
2026-05-07 22:17 -6.04137 145.38773 11814 ft 145 kts 174°
2026-05-07 22:17 -6.05197 145.38862 11172 ft 157 kts 174°
2026-05-07 22:17 -6.06282 145.38958 10602 ft 156 kts 174°
2026-05-07 22:17 -6.07356 145.39051 10014 ft 154 kts 175°
2026-05-07 22:18 -6.08413 145.39143 9394 ft 150 kts 175°
2026-05-07 22:18 -6.10493 145.39256 8062 ft 151 kts 194°
2026-05-07 22:18 -6.11384 145.38711 7424 ft 151 kts 219°
2026-05-07 22:19 -6.12194 145.38040 6812 ft 150 kts 218°
2026-05-07 22:19 -6.13166 145.37815 6430 ft 139 kts 166°
2026-05-07 22:19 -6.13744 145.38358 6397 ft 101 kts 101°
2026-05-07 22:19 -6.13477 145.38864 6506 ft 85 kts 37°
2026-05-07 22:20 -6.13135 145.39185 6660 ft 119 kts 52°
2026-05-07 22:20 -6.12421 145.39635 6599 ft 122 kts
2026-05-07 22:20 -6.11430 145.39490 6238 ft 95 kts
2026-05-07 22:20 -6.11154 145.39785 5986 ft 92 kts 79°
2026-05-07 22:21 -6.11712 145.40039 5383 ft 104 kts 242°
2026-05-07 22:21 -6.11635 145.39591 5286 ft 111 kts 314°
2026-05-07 22:21 -6.10863 145.39377 5293 ft 113 kts 353°
2026-05-07 22:21 -6.10163 145.39293 5194 ft 96 kts 355°
2026-05-07 22:22 -6.09533 145.39235 5149 ft 90 kts 354°
2026-05-07 22:22 -6.08882 145.39182 5111 ft 93 kts 356°
2026-05-07 22:22 -6.08303 145.39135 5151 ft 70 kts 356°
2026-05-07 22:22 -6.07923 145.39099 5185 ft 40 kts 356°
2026-05-07 22:23 -6.07654 145.39075 5217 ft 31 kts 354°
2026-05-07 22:23 -6.07524 145.39067 5231 ft 20 kts 357°
2026-05-07 22:23 -6.07452 145.39149 5236 ft 16 kts 82°
2026-05-07 22:23 -6.07429 145.39208 5238 ft 6 kts 356°
2026-05-07 22:24 -6.07400 145.39209 5242 ft 6 kts 25°
2026-05-07 22:24 -6.07389 145.39247 5243 ft 2 kts 95°
2026-05-07 22:24 -6.07395 145.39252 5242 ft 0 kts 176°
2026-05-07 22:27 -6.07404 145.39250 5241 ft 6 kts 205°
2026-05-07 22:27 -6.07473 145.39176 5232 ft 20 kts 199°
2026-05-07 22:28 -6.07638 145.39185 5213 ft 26 kts 176°
2026-05-07 22:28 -6.07801 145.39200 5195 ft 21 kts 176°
2026-05-07 22:28 -6.07918 145.39211 5180 ft 12 kts 151°
2026-05-07 22:28 -6.07908 145.39256 5181 ft 6 kts 353°
2026-05-07 22:29 -6.07881 145.39257 5184 ft 4 kts 78°
2026-05-07 22:29 -6.07890 145.39272 5184 ft 1 kts 158°
2026-05-07 22:29 -6.07898 145.39273 5183 ft 0 kts 176°
2026-05-07 22:29 -6.07899 145.39273 5183 ft 0 kts 174°